Time;durP1;ratioP1;P1;durP2;ratioP2;P2;SDS_P1;SDS_P2;PMS_P1;PMS_P2;Temp;Humidity;BMP_temperature;BMP_pressure;BME280_temperature;BME280_humidity;BME280_pressure;Samples;Min_cycle;Max_cycle;Signal;HPM_P1;HPM_P2
2022/09/21 00:01:19;;;;;;;2.98;2.77;;;;;;;10.49;100.00;99192.18;1756659;81;21032;-70
2022/09/21 00:03:45;;;;;;;3.12;2.77;;;;;;;10.49;100.00;99189.49;1757477;80;21368;-67
2022/09/21 00:06:15;;;;;;;2.98;2.67;;;;;;;10.50;100.00;99199.15;1755278;81;20950;-70
2022/09/21 00:08:45;;;;;;;3.65;3.05;;;;;;;10.51;100.00;99186.52;1753331;81;20922;-70
2022/09/21 00:11:23;;;;;;;5.78;3.47;;;;;;;10.54;100.00;99191.39;1755360;80;21027;-69
2022/09/21 00:13:59;;;;;;;4.00;3.15;;;;;;;10.50;100.00;99183.02;1757693;80;21681;-72
2022/09/21 00:16:27;;;;;;;3.60;3.30;;;;;;;10.50;100.00;99184.92;1749983;80;21169;-72
2022/09/21 00:18:55;;;;;;;8.60;3.42;;;;;;;10.41;100.00;99177.87;1713845;83;20998;-71
2022/09/21 00:21:22;;;;;;;4.10;3.22;;;;;;;10.39;100.00;99182.72;1708562;82;21051;-71
2022/09/21 00:23:50;;;;;;;4.03;3.60;;;;;;;10.43;100.00;99185.15;1756492;81;21055;-70
2022/09/21 00:26:19;;;;;;;4.67;4.15;;;;;;;10.41;100.00;99177.87;1756757;81;21566;-71
2022/09/21 00:28:46;;;;;;;3.58;3.25;;;;;;;10.40;100.00;99186.22;1757276;80;21154;-77
2022/09/21 00:31:17;;;;;;;4.03;3.65;;;;;;;10.40;100.00;99176.80;1754211;81;21336;-75
2022/09/21 00:33:44;;;;;;;3.22;3.02;;;;;;;10.38;100.00;99173.55;1744593;80;21577;-73
2022/09/21 00:36:15;;;;;;;2.98;2.67;;;;;;;10.35;100.00;99179.47;1755219;81;21580;-75
2022/09/21 00:38:50;;;;;;;3.60;3.17;;;;;;;10.34;100.00;99175.97;1726042;83;21026;-76
2022/09/21 00:41:17;;;;;;;3.52;3.22;;;;;;;10.35;100.00;99168.71;1720889;82;21119;-72
2022/09/21 00:44:07;;;;;;;2.70;2.50;;;;;;;10.34;100.00;99171.13;1694593;84;20990;-74
2022/09/21 00:46:35;;;;;;;3.65;3.45;;;;;;;10.32;100.00;99163.84;1689782;84;21025;-73
2022/09/21 00:49:01;;;;;;;2.80;2.60;;;;;;;10.36;100.00;99170.34;1700656;83;21125;-72
2022/09/21 00:51:28;;;;;;;2.72;2.52;;;;;;;10.38;100.00;99162.80;1700425;84;21067;-72
2022/09/21 00:53:59;;;;;;;3.72;3.42;;;;;;;10.38;100.00;99168.18;1701677;83;21161;-75
2022/09/21 00:56:26;;;;;;;3.50;3.20;;;;;;;10.35;100.00;99169.53;1753067;81;21502;-70
2022/09/21 00:58:52;;;;;;;4.67;2.72;;;;;;;10.32;100.00;99170.03;1733978;81;21524;-73
2022/09/21 01:01:18;;;;;;;2.92;2.72;;;;;;;10.33;100.00;99168.96;1678571;84;21109;-79
2022/09/21 01:03:48;;;;;;;3.30;3.00;;;;;;;10.35;100.00;99168.71;1701242;83;21082;-79
2022/09/21 01:06:16;;;;;;;2.67;2.52;;;;;;;10.36;100.00;99165.74;1716737;81;21090;-81
2022/09/21 01:08:45;;;;;;;2.92;2.62;;;;;;;10.40;100.00;99167.40;1724832;83;21377;-78
2022/09/21 01:11:34;;;;;;;3.52;2.98;;;;;;;10.41;100.00;99172.48;1701701;83;22210;-73
2022/09/21 01:14:26;;;;;;;3.60;2.90;;;;;;;10.46;100.00;99161.77;1697856;84;21396;-72
2022/09/21 01:17:04;;;;;;;2.50;2.30;;;;;;;10.47;100.00;99153.17;1710765;81;21383;-73
2022/09/21 01:20:07;;;;;;;3.70;3.05;;;;;;;10.46;100.00;99168.48;1720945;83;21259;-82
2022/09/21 01:23:01;;;;;;;5.42;2.83;;;;;;;10.42;100.00;99155.83;1717470;82;20987;-73
2022/09/21 01:26:02;;;;;;;3.33;3.02;;;;;;;10.40;100.00;99159.33;1726330;81;24060;-74
2022/09/21 01:29:00;;;;;;;3.50;3.20;;;;;;;10.37;100.00;99155.27;1711448;82;21050;-74
2022/09/21 01:31:38;;;;;;;3.52;3.30;;;;;;;10.34;100.00;99151.77;1715095;82;21062;-73
2022/09/21 01:34:10;;;;;;;2.98;2.77;;;;;;;10.31;100.00;99160.91;1697456;83;21415;-74
2022/09/21 01:36:37;;;;;;;5.58;3.62;;;;;;;10.31;100.00;99164.94;1714159;82;21042;-74
2022/09/21 01:39:09;;;;;;;3.65;2.98;;;;;;;10.26;100.00;99164.38;1713864;82;21040;-75
2022/09/21 01:41:37;;;;;;;4.25;3.17;;;;;;;10.28;100.00;99167.59;1672527;83;21561;-74
2022/09/21 01:44:08;;;;;;;4.17;3.05;;;;;;;10.34;100.00;99163.05;1684969;84;21031;-73
2022/09/21 01:46:36;;;;;;;3.40;3.10;;;;;;;10.36;100.00;99169.77;1708924;83;22270;-72
2022/09/21 01:49:10;;;;;;;5.35;4.55;;;;;;;10.41;100.00;99171.68;1714163;83;20979;-72
2022/09/21 01:51:42;;;;;;;3.52;3.22;;;;;;;10.41;100.00;99171.68;1712705;83;21054;-72
2022/09/21 01:54:13;;;;;;;6.03;3.75;;;;;;;10.36;100.00;99168.43;1714485;83;21102;-72
2022/09/21 01:57:03;;;;;;;4.08;3.02;;;;;;;10.36;100.00;99174.37;1714130;83;21058;-72
2022/09/21 01:59:50;;;;;;;3.20;3.00;;;;;;;10.40;100.00;99168.74;1696249;83;21165;-71
2022/09/21 02:02:47;;;;;;;4.70;2.87;;;;;;;10.43;100.00;99169.02;1702499;83;21076;-72
2022/09/21 02:05:15;;;;;;;4.90;3.33;;;;;;;10.44;100.00;99166.61;1714202;83;21030;-71
2022/09/21 02:07:41;;;;;;;3.55;3.15;;;;;;;10.42;100.00;99158.52;1693567;83;21599;-71
2022/09/21 02:10:12;;;;;;;3.25;3.02;;;;;;;10.43;100.00;99164.98;1715345;83;21025;-72
2022/09/21 02:12:41;;;;;;;4.35;3.17;;;;;;;10.44;100.00;99170.64;1707927;83;21947;-72
2022/09/21 02:15:09;;;;;;;4.10;2.70;;;;;;;10.45;100.00;99172.23;1706867;83;21638;-72
2022/09/21 02:17:59;;;;;;;3.33;2.90;;;;;;;10.44;100.00;99163.92;1711172;83;21078;-72
2022/09/21 02:20:31;;;;;;;6.22;3.95;;;;;;;10.46;100.00;99165.80;1644701;83;21490;-72
2022/09/21 02:23:26;;;;;;;3.75;2.85;;;;;;;10.38;100.00;99164.96;1704137;83;21120;-75
2022/09/21 02:26:11;;;;;;;4.37;2.90;;;;;;;10.38;100.00;99174.37;1704006;82;21516;-73
2022/09/21 02:28:50;;;;;;;5.92;2.72;;;;;;;10.39;100.00;99177.34;1710022;83;21018;-75
2022/09/21 02:31:39;;;;;;;2.75;2.52;;;;;;;10.36;100.00;99175.16;1695260;82;21539;-74
2022/09/21 02:34:17;;;;;;;3.77;3.00;;;;;;;10.36;100.00;99178.40;1709871;83;21089;-74
2022/09/21 02:37:08;;;;;;;8.40;4.25;;;;;;;10.35;100.00;99180.81;1691908;83;21047;-75
2022/09/21 02:39:48;;;;;;;9.50;3.10;;;;;;;10.32;100.00;99180.78;1717327;82;21076;-75
2022/09/21 02:42:19;;;;;;;3.80;3.10;;;;;;;10.32;100.00;99179.97;1661930;85;20992;-75
2022/09/21 02:45:04;;;;;;;2.90;2.70;;;;;;;10.35;100.00;99180.28;1703731;83;22271;-75
2022/09/21 02:47:48;;;;;;;2.77;2.45;;;;;;;10.41;100.00;99182.44;1695365;83;21031;-75
2022/09/21 02:50:19;;;;;;;;;;;;;;;10.40;100.00;99181.65;1702922;84;21615;-74
2022/09/21 02:52:45;;;;;;;7.90;2.75;;;;;;;10.38;100.00;99192.37;1687527;83;21902;-75
2022/09/21 02:55:12;;;;;;;2.15;2.05;;;;;;;10.37;100.00;99192.91;1711801;82;21112;-75
2022/09/21 02:57:39;;;;;;;2.47;2.27;;;;;;;10.35;100.00;99190.22;1710238;82;21073;-75
2022/09/21 03:00:07;;;;;;;2.95;2.72;;;;;;;10.35;100.00;99197.75;1726117;81;21543;-76
2022/09/21 03:02:39;;;;;;;2.85;2.60;;;;;;;10.37;100.00;99202.84;1684829;83;21077;-75
2022/09/21 03:05:07;;;;;;;3.00;2.80;;;;;;;10.38;100.00;99196.41;1709495;83;21801;-75
2022/09/21 03:07:34;;;;;;;3.02;2.83;;;;;;;10.33;100.00;99196.38;1710814;82;21586;-75
2022/09/21 03:10:01;;;;;;;3.15;2.95;;;;;;;10.32;100.00;99192.87;1710753;82;21555;-75
2022/09/21 03:12:27;;;;;;;5.53;2.90;;;;;;;10.31;100.00;99191.81;1711980;82;21029;-75
2022/09/21 03:14:56;;;;;;;3.58;3.30;;;;;;;10.30;100.00;99192.34;1712142;83;21634;-73
2022/09/21 03:17:22;;;;;;;3.25;2.90;;;;;;;10.32;100.00;99199.59;1727641;83;21062;-73
2022/09/21 03:19:48;;;;;;;5.10;2.67;;;;;;;10.37;100.00;99200.16;1701095;83;21053;-73
2022/09/21 03:22:16;;;;;;;3.52;2.80;;;;;;;10.38;100.00;99201.25;1720945;82;21043;-74
2022/09/21 03:24:46;;;;;;;3.02;2.83;;;;;;;10.40;100.00;99202.34;1722438;83;21055;-75
2022/09/21 03:27:20;;;;;;;5.50;3.10;;;;;;;10.40;100.00;99195.09;1701700;83;21061;-74
2022/09/21 03:29:46;;;;;;;3.05;2.85;;;;;;;10.38;100.00;99189.69;1697529;82;21141;-75
2022/09/21 03:32:13;;;;;;;4.80;3.95;;;;;;;10.38;100.00;99199.09;1723903;82;21048;-76
2022/09/21 03:34:40;;;;;;;6.20;3.40;;;;;;;10.36;100.00;99193.19;1720418;82;21661;-75
2022/09/21 03:37:08;;;;;;;4.08;3.02;;;;;;;10.36;100.00;99193.19;1740242;81;20879;-75
2022/09/21 03:39:35;;;;;;;5.12;3.27;;;;;;;10.36;100.00;99203.38;1735442;82;21026;-75
2022/09/21 03:42:03;;;;;;;3.30;3.00;;;;;;;10.36;100.00;99208.75;1709927;82;21232;-75
2022/09/21 03:44:31;;;;;;;3.50;3.20;;;;;;;10.33;100.00;99211.97;1732335;81;21025;-75
2022/09/21 03:46:58;;;;;;;3.00;2.80;;;;;;;10.34;100.00;99216.28;1705806;82;21051;-75
2022/09/21 03:49:25;;;;;;;3.60;3.30;;;;;;;10.29;100.00;99207.38;1726904;81;21068;-75
2022/09/21 03:51:51;;;;;;;3.22;3.02;;;;;;;10.23;100.00;99209.75;1727480;81;21038;-73
2022/09/21 03:54:17;;;;;;;8.58;4.03;;;;;;;10.23;100.00;99207.87;1728228;82;21214;-75
2022/09/21 03:56:44;;;;;;;4.33;3.20;;;;;;;10.23;100.00;99205.19;1729814;81;21057;-75
2022/09/21 03:59:14;;;;;;;5.33;3.67;;;;;;;10.29;100.00;99208.19;1726437;81;21555;-73
2022/09/21 04:01:57;;;;;;;4.17;3.87;;;;;;;10.29;100.00;99208.19;1727769;81;21002;-73
2022/09/21 04:04:14;;;;;;;4.62;3.27;;;;;;;10.24;100.00;99216.75;1730885;81;21668;-76
2022/09/21 04:06:41;;;;;;;3.77;3.37;;;;;;;10.21;100.00;99215.94;1736591;81;21008;-72
2022/09/21 04:09:07;;;;;;;6.83;2.98;;;;;;;10.19;100.00;99216.19;1726572;81;21035;-73
2022/09/21 04:11:36;;;;;;;3.80;3.50;;;;;;;10.21;100.00;99222.65;1727878;81;21022;-70
2022/09/21 04:14:04;;;;;;;2.92;2.72;;;;;;;10.19;100.00;99224.77;1728063;81;21072;-75
2022/09/21 04:16:31;;;;;;;3.12;2.83;;;;;;;10.19;100.00;99224.24;1729032;81;21061;-70
2022/09/21 04:18:58;;;;;;;2.80;2.58;;;;;;;10.19;100.00;99229.63;1705914;83;21116;-73
2022/09/21 04:21:27;;;;;;;4.67;3.20;;;;;;;10.20;100.00;99227.22;1726716;81;20991;-72
2022/09/21 04:23:53;;;;;;;3.17;2.87;;;;;;;10.20;100.00;99232.59;1727155;81;21043;-73
2022/09/21 04:26:28;;;;;;;6.25;2.92;;;;;;;10.19;100.00;99230.15;1730079;81;21042;-74
2022/09/21 04:28:55;;;;;;;7.47;4.03;;;;;;;10.22;100.00;99231.78;1728305;81;21569;-71
2022/09/21 04:31:22;;;;;;;3.83;2.95;;;;;;;10.20;100.00;99233.93;1727175;81;21153;-72
2022/09/21 04:33:52;;;;;;;3.37;2.50;;;;;;;10.21;100.00;99227.50;1729317;81;20989;-72
2022/09/21 04:36:19;;;;;;;3.30;2.70;;;;;;;10.24;100.00;99233.69;1727101;81;21107;-75
2022/09/21 04:38:45;;;;;;;3.02;2.83;;;;;;;10.20;100.00;99226.40;1726841;81;21555;-72
2022/09/21 04:41:12;;;;;;;2.83;2.60;;;;;;;10.20;100.00;99230.43;1727228;81;21133;-70
2022/09/21 04:43:46;;;;;;;3.08;2.65;;;;;;;10.22;100.00;99230.44;1736353;81;21231;-73
2022/09/21 04:46:15;;;;;;;5.20;3.67;;;;;;;10.25;100.00;99225.91;1732171;81;21082;-71
2022/09/21 04:48:42;;;;;;;3.15;2.80;;;;;;;10.18;100.00;99230.68;1727018;81;21624;-74
2022/09/21 04:51:09;;;;;;;8.18;3.10;;;;;;;10.18;100.00;99226.65;1727003;81;21058;-72
2022/09/21 04:53:38;;;;;;;3.00;2.70;;;;;;;10.19;100.00;99233.65;1724868;82;21549;-74
2022/09/21 04:56:05;;;;;;;2.92;2.60;;;;;;;10.21;100.00;99238.78;1745370;80;21022;-71
2022/09/21 04:58:33;;;;;;;4.00;3.12;;;;;;;10.21;100.00;99234.75;1709716;82;21541;-72
2022/09/21 05:01:00;;;;;;;3.40;2.45;;;;;;;10.20;100.00;99228.55;1721967;82;21063;-72
2022/09/21 05:03:27;;;;;;;3.33;3.02;;;;;;;10.22;100.00;99229.09;1721187;82;21102;-73
2022/09/21 05:05:55;;;;;;;3.62;3.08;;;;;;;10.18;100.00;99224.49;1721415;82;21094;-71
2022/09/21 05:11:13;;;;;;;3.15;2.75;;;;;;;10.22;100.00;99227.75;1696655;82;21083;-74
2022/09/21 05:13:39;;;;;;;4.72;3.12;;;;;;;10.22;100.00;99224.25;1721012;82;21035;-73
2022/09/21 05:16:08;;;;;;;3.70;3.33;;;;;;;10.20;100.00;99226.40;1721323;82;21094;-72
2022/09/21 05:18:36;;;;;;;2.62;2.42;;;;;;;10.20;100.00;99232.59;1723376;82;22226;-71
2022/09/21 05:21:03;;;;;;;5.62;2.70;;;;;;;10.25;100.00;99240.69;1753169;80;21073;-73
2022/09/21 05:23:30;;;;;;;3.62;3.08;;;;;;;10.30;100.00;99239.91;1683349;82;21130;-73
2022/09/21 05:25:57;;;;;;;4.40;3.77;;;;;;;10.31;100.00;99240.97;1742335;81;21082;-73
2022/09/21 05:28:25;;;;;;;4.42;3.60;;;;;;;10.30;100.00;99253.34;1732615;81;21056;-72
2022/09/21 05:31:19;;;;;;;4.22;3.83;;;;;;;10.28;100.00;99255.47;1721965;82;21051;-74
2022/09/21 05:34:06;;;;;;;5.60;3.80;;;;;;;10.26;100.00;99258.44;1721286;82;21773;-71
2022/09/21 05:36:47;;;;;;;3.22;2.92;;;;;;;10.30;100.00;99254.69;1725870;82;22172;-73
2022/09/21 05:39:14;;;;;;;4.65;4.28;;;;;;;10.32;100.00;99253.35;1743566;81;21079;-72
2022/09/21 05:41:41;;;;;;;3.72;3.42;;;;;;;10.29;100.00;99253.06;1696169;83;21094;-71
2022/09/21 05:44:13;;;;;;;3.72;3.35;;;;;;;10.29;100.00;99255.22;1730270;81;21806;-70
2022/09/21 05:47:00;;;;;;;4.05;3.30;;;;;;;10.29;100.00;99254.41;1742685;81;21652;-69
2022/09/21 05:50:07;;;;;;;9.18;4.10;;;;;;;10.30;100.00;99253.34;1744983;82;21092;-70
2022/09/21 05:53:11;;;;;;;7.62;5.25;;;;;;;10.39;100.00;99260.67;1732910;81;21122;-70
2022/09/21 05:55:57;;;;;;;5.30;4.42;;;;;;;10.40;100.00;99264.98;1758102;80;21043;-71
2022/09/21 05:59:01;;;;;;;4.05;3.42;;;;;;;10.38;100.00;99266.30;1737933;81;21102;-69
2022/09/21 06:01:44;;;;;;;5.15;3.40;;;;;;;10.32;100.00;99258.73;1690842;84;21073;-72
2022/09/21 06:04:12;;;;;;;3.73;3.13;;;;;;;10.32;100.00;99268.66;1718856;81;21050;-70
2022/09/21 06:06:39;;;;;;;4.37;3.98;;;;;;;10.32;100.00;99267.33;1713790;81;21308;-71
2022/09/21 06:09:06;;;;;;;5.17;3.65;;;;;;;10.32;100.00;99268.13;1758013;81;21010;-74
2022/09/21 06:11:35;;;;;;;4.33;3.35;;;;;;;10.35;100.00;99267.64;1736322;81;21607;-72
2022/09/21 06:14:05;;;;;;;4.42;4.00;;;;;;;10.42;100.00;99269.55;1701275;83;21231;-74
2022/09/21 06:16:40;;;;;;;5.60;3.17;;;;;;;10.47;100.00;99266.89;1746129;81;21146;-76
2022/09/21 06:19:11;;;;;;;4.35;3.95;;;;;;;10.52;100.00;99271.50;1705304;84;21104;-71
2022/09/21 06:21:39;;;;;;;4.72;3.90;;;;;;;10.57;100.00;99273.41;1722913;82;21066;-74
2022/09/21 06:24:06;;;;;;;3.70;3.40;;;;;;;10.60;100.00;99272.91;1748403;80;21042;-74
2022/09/21 06:26:35;;;;;;;7.80;4.08;;;;;;;10.63;100.00;99275.88;1724076;81;21852;-73
2022/09/21 06:29:02;;;;;;;5.30;3.50;;;;;;;10.67;100.00;99279.66;1711274;82;21097;-73
2022/09/21 06:31:29;;;;;;;5.45;4.95;;;;;;;10.64;100.00;99278.84;1758423;80;21010;-72
2022/09/21 06:33:57;;;;;;;4.30;3.90;;;;;;;10.58;100.00;99279.88;1755071;81;21027;-70
2022/09/21 06:36:23;;;;;;;7.80;4.00;;;;;;;10.60;100.00;99275.03;1721312;82;21095;-74
2022/09/21 06:38:53;;;;;;;3.87;3.58;;;;;;;10.65;100.00;99284.47;1747432;80;22338;-70
2022/09/21 06:41:21;;;;;;;6.42;3.92;;;;;;;10.71;100.00;99290.70;1703596;82;21658;-72
2022/09/21 06:43:48;;;;;;;4.22;3.37;;;;;;;10.72;100.00;99286.41;1684622;82;22078;-71
2022/09/21 06:46:14;;;;;;;4.47;4.08;;;;;;;10.79;100.00;99290.23;1724413;82;21555;-69
2022/09/21 06:48:41;;;;;;;5.22;3.62;;;;;;;10.85;100.00;99286.47;1736965;81;21027;-70
2022/09/21 06:51:09;;;;;;;8.05;3.58;;;;;;;10.91;100.00;99290.28;1737601;81;22682;-71
2022/09/21 06:53:35;;;;;;;4.55;4.15;;;;;;;10.97;100.00;99291.66;1723981;83;21112;-73
2022/09/21 06:56:11;;;;;;;3.72;3.12;;;;;;;10.98;100.00;99289.24;1704561;82;20957;-71
2022/09/21 06:58:37;;;;;;;3.95;3.12;;;;;;;11.00;100.00;99291.93;1686946;82;21043;-71
2022/09/21 07:01:06;;;;;;;5.08;2.75;;;;;;;11.04;100.00;99291.67;1738391;81;21019;-70
2022/09/21 07:03:33;;;;;;;3.17;2.98;;;;;;;11.12;100.00;99292.54;1736549;81;21796;-72
2022/09/21 07:06:00;;;;;;;2.92;2.72;;;;;;;11.15;100.00;99296.57;1737152;81;21030;-72
2022/09/21 07:08:27;;;;;;;3.58;3.30;;;;;;;11.18;100.00;99308.96;1740974;81;21656;-70
2022/09/21 07:10:59;;;;;;;3.58;3.27;;;;;;;11.17;100.00;99294.44;1732899;81;21089;-69
2022/09/21 07:13:26;;;;;;;3.83;3.52;;;;;;;11.15;100.00;99295.23;1736925;81;21482;-71
2022/09/21 07:15:53;;;;;;;3.52;2.50;;;;;;;11.13;100.00;99298.17;1743336;81;21239;-72
2022/09/21 07:18:20;;;;;;;4.40;3.17;;;;;;;11.15;100.00;99302.77;1734446;81;22571;-69
2022/09/21 07:20:49;;;;;;;3.10;2.27;;;;;;;11.17;100.00;99298.48;1754980;80;21461;-70
2022/09/21 07:23:18;;;;;;;3.27;2.98;;;;;;;11.20;100.00;99307.36;1724555;82;21093;-69
2022/09/21 07:25:48;;;;;;;4.35;2.90;;;;;;;11.19;100.00;99315.97;1748622;80;21568;-72
2022/09/21 07:28:16;;;;;;;2.58;2.37;;;;;;;11.24;100.00;99312.48;1744690;82;21798;-70
2022/09/21 07:30:42;;;;;;;2.87;2.65;;;;;;;11.19;100.00;99309.23;1700294;83;21015;-69
2022/09/21 07:33:09;;;;;;;6.72;2.80;;;;;;;11.13;100.00;99314.31;1735142;81;21131;-70
2022/09/21 07:35:36;;;;;;;3.15;2.85;;;;;;;11.09;100.00;99317.80;1710390;82;21578;-70
2022/09/21 07:38:05;;;;;;;3.02;2.70;;;;;;;11.11;100.00;99328.59;1739656;81;21499;-70
2022/09/21 07:40:34;;;;;;;3.40;2.92;;;;;;;11.09;100.00;99321.84;1736019;81;21066;-73
2022/09/21 07:43:01;;;;;;;2.55;2.35;;;;;;;11.08;100.00;99318.89;1735919;81;20970;-67
2022/09/21 07:45:30;;;;;;;3.05;2.85;;;;;;;11.11;100.00;99331.81;1736237;81;21385;-71
2022/09/21 07:48:04;;;;;;;3.12;2.90;;;;;;;11.15;100.00;99326.18;1736387;81;21070;-69
2022/09/21 07:50:32;;;;;;;2.27;2.10;;;;;;;11.16;100.00;99320.55;1737162;82;21062;-68
2022/09/21 07:53:00;;;;;;;2.90;2.70;;;;;;;11.12;100.00;99327.53;1735747;81;21073;-69
2022/09/21 07:55:28;;;;;;;2.40;2.20;;;;;;;11.09;100.00;99324.53;1735685;82;21101;-70
2022/09/21 08:00:39;;;;;;;3.60;2.50;;;;;;;11.09;100.00;99333.95;1734159;81;21091;-69
2022/09/21 08:03:06;;;;;;;2.25;2.05;;;;;;;11.11;100.00;99332.63;1735430;81;21038;-70
2022/09/21 08:05:33;;;;;;;2.35;2.15;;;;;;;11.11;100.00;99328.59;1735470;81;21182;-72
2022/09/21 08:08:01;;;;;;;4.60;2.47;;;;;;;11.09;100.00;99337.45;1745168;81;21000;-70
2022/09/21 08:10:28;;;;;;;5.78;2.47;;;;;;;11.08;100.00;99339.08;1747357;81;21126;-70
2022/09/21 08:12:55;;;;;;;2.67;2.47;;;;;;;11.06;100.00;99339.86;1746227;81;21077;-69
2022/09/21 08:15:22;;;;;;;2.87;2.52;;;;;;;11.06;100.00;99343.37;1750347;81;21053;-71
2022/09/21 08:17:50;;;;;;;3.98;2.90;;;;;;;11.09;100.00;99339.33;1723289;81;21138;-71
2022/09/21 08:20:19;;;;;;;4.35;2.42;;;;;;;11.06;100.00;99337.17;1745185;81;21096;-70
2022/09/21 08:22:45;;;;;;;2.10;1.98;;;;;;;11.05;100.00;99339.58;1751185;81;21050;-69
2022/09/21 08:25:13;;;;;;;1.60;1.50;;;;;;;11.03;100.00;99344.44;1756461;81;21072;-68
2022/09/21 08:27:42;;;;;;;3.67;2.17;;;;;;;11.03;100.00;99347.91;1745839;81;21023;-68
2022/09/21 08:30:12;;;;;;;4.47;2.30;;;;;;;11.05;100.00;99348.47;1756349;80;21090;-68
2022/09/21 08:32:40;;;;;;;4.53;2.45;;;;;;;11.07;100.00;99353.60;1731569;82;21688;-70
2022/09/21 08:35:08;;;;;;;2.65;2.20;;;;;;;11.06;100.00;99347.41;1749090;81;21082;-70
2022/09/21 08:37:36;;;;;;;7.15;2.50;;;;;;;11.09;100.00;99349.56;1752258;81;21012;-69
2022/09/21 08:40:06;;;;;;;3.12;2.92;;;;;;;11.09;100.00;99361.67;1744460;81;21100;-69
2022/09/21 08:42:48;;;;;;;3.98;2.58;;;;;;;11.12;100.00;99344.20;1711266;82;21132;-67
2022/09/21 08:45:18;;;;;;;2.08;1.87;;;;;;;11.18;100.00;99344.48;1724950;82;21498;-68
2022/09/21 08:47:57;;;;;;;3.20;1.92;;;;;;;11.29;100.00;99342.94;1720395;82;21160;-69
2022/09/21 08:50:43;;;;;;;3.35;2.05;;;;;;;11.38;100.00;99344.05;1706390;82;21227;-69
2022/09/21 08:53:29;;;;;;;2.40;2.20;;;;;;;11.45;100.00;99347.05;1721906;82;21545;-68
2022/09/21 08:55:58;;;;;;;1.62;1.52;;;;;;;11.54;100.00;99348.14;1704379;84;20959;-67
2022/09/21 08:58:30;;;;;;;2.08;1.98;;;;;;;11.59;100.00;99353.02;1722139;83;21546;-69
2022/09/21 09:01:53;;;;;;;2.10;2.00;;;;;;;11.65;100.00;99349.81;1704314;83;21037;-70
2022/09/21 09:04:41;;;;;;;3.20;2.87;;;;;;;11.72;100.00;99353.05;1666640;84;21638;-69
2022/09/21 09:07:38;;;;;;;2.12;1.95;;;;;;;11.71;100.00;99360.84;1693082;84;21119;-71
2022/09/21 09:10:37;;;;;;;1.65;1.55;;;;;;;11.71;100.00;99364.36;1696009;82;21213;-68
2022/09/21 09:13:47;;;;;;;2.33;1.90;;;;;;;11.72;100.00;99357.09;1679267;84;21063;-71
2022/09/21 09:16:48;;;;;;;2.17;1.98;;;;;;;11.74;100.00;99368.45;1675326;85;21103;-68
2022/09/21 09:19:29;;;;;;;1.85;1.75;;;;;;;11.76;100.00;99366.28;1703963;84;20974;-69
2022/09/21 09:21:55;;;;;;;4.12;3.17;;;;;;;11.83;100.00;99364.16;1708516;82;20950;-68
2022/09/21 09:24:49;;;;;;;6.87;2.00;;;;;;;11.89;100.00;99371.73;1671098;85;21210;-70
2022/09/21 09:27:23;;;;;;;2.25;2.05;;;;;;;11.96;100.00;99368.22;1698138;83;21079;-70
2022/09/21 09:30:24;;;;;;;1.95;1.85;;;;;;;11.99;100.00;99369.84;1695512;83;21029;-69
2022/09/21 09:32:59;;;;;;;6.80;2.10;;;;;;;12.04;99.60;99366.34;1695312;84;21024;-69
2022/09/21 09:35:31;;;;;;;2.40;2.20;;;;;;;12.12;99.94;99377.97;1702350;84;21524;-70
2022/09/21 09:38:35;;;;;;;2.60;2.40;;;;;;;12.16;98.26;99365.03;1701791;84;21047;-70
2022/09/21 09:41:09;;;;;;;;;;;;;;;12.22;97.58;99368.55;1718857;83;21032;-69
2022/09/21 09:43:58;;;;;;;2.83;2.62;;;;;;;12.24;97.02;99363.14;1728953;81;20165;-70
2022/09/21 09:46:38;;;;;;;2.02;1.92;;;;;;;12.29;96.93;99362.33;1732871;81;21030;-69
2022/09/21 09:49:31;;;;;;;4.47;1.82;;;;;;;12.32;96.37;99375.83;1719279;83;21051;-69
2022/09/21 09:51:58;;;;;;;1.67;1.57;;;;;;;12.37;95.48;99373.14;1716156;82;21242;-67
2022/09/21 09:54:26;;;;;;;2.30;1.65;;;;;;;12.41;94.27;99360.73;1714360;83;21040;-64
2022/09/21 09:56:55;;;;;;;1.62;1.52;;;;;;;12.41;92.80;99360.73;1730304;82;21015;-67
2022/09/21 09:59:54;;;;;;;2.67;2.47;;;;;;;12.41;92.57;99372.88;1733271;81;21023;-65
2022/09/21 10:02:26;;;;;;;2.30;2.10;;;;;;;12.40;92.05;99374.75;1734513;81;21086;-66
2022/09/21 10:05:08;;;;;;;3.12;2.15;;;;;;;12.38;93.44;99380.13;1747127;81;21174;-64
2022/09/21 10:07:40;;;;;;;3.62;2.52;;;;;;;12.38;93.79;99386.88;1739546;81;21070;-66
2022/09/21 10:10:31;;;;;;;4.67;2.15;;;;;;;12.35;94.08;99374.75;1735068;81;21571;-65
2022/09/21 10:13:24;;;;;;;3.92;1.98;;;;;;;12.37;94.27;99382.05;1709490;83;21114;-66
2022/09/21 10:15:56;;;;;;;2.20;2.10;;;;;;;12.37;94.29;99373.95;1735397;81;21047;-65
2022/09/21 10:18:50;;;;;;;4.33;2.55;;;;;;;12.38;93.33;99380.94;1738190;81;21091;-66
2022/09/21 10:21:20;;;;;;;3.75;2.52;;;;;;;12.39;93.17;99373.12;1727926;81;21082;-67
2022/09/21 10:23:55;;;;;;;2.10;1.90;;;;;;;12.32;92.35;99379.34;1731498;81;20985;-68
2022/09/21 10:26:21;;;;;;;4.80;2.37;;;;;;;12.31;92.79;99380.95;1683460;82;21114;-65
2022/09/21 10:29:03;;;;;;;2.95;2.75;;;;;;;12.33;93.12;99388.22;1742815;81;21049;-67
2022/09/21 10:31:30;;;;;;;2.80;2.50;;;;;;;12.36;93.48;99380.95;1744246;81;21236;-69
2022/09/21 10:34:13;;;;;;;2.65;2.20;;;;;;;12.36;94.08;99384.47;1735165;81;21605;-68
2022/09/21 10:36:41;;;;;;;2.85;2.58;;;;;;;12.36;94.10;99392.55;1748455;81;21550;-68
2022/09/21 10:39:32;;;;;;;3.00;2.67;;;;;;;12.34;94.24;99389.84;1726815;81;21075;-69
2022/09/21 10:42:05;;;;;;;2.30;2.10;;;;;;;12.29;94.19;99393.34;1739397;81;21085;-68
2022/09/21 10:44:45;;;;;;;2.65;2.45;;;;;;;12.23;93.78;99399.80;1719520;82;21066;-68
2022/09/21 10:47:29;;;;;;;2.50;2.30;;;;;;;12.16;93.98;99396.03;1725301;81;21080;-69
2022/09/21 10:50:01;;;;;;;3.02;2.80;;;;;;;12.18;94.59;99399.25;1734607;81;21090;-68
2022/09/21 10:52:34;;;;;;;4.65;2.90;;;;;;;12.21;94.85;99397.92;1739756;81;21632;-68
2022/09/21 10:55:03;;;;;;;5.97;2.45;;;;;;;12.22;95.07;99399.02;1748259;81;21094;-69
2022/09/21 10:57:31;;;;;;;3.40;3.10;;;;;;;12.20;95.11;99412.48;1757212;81;21189;-70
2022/09/21 10:59:58;;;;;;;2.75;2.55;;;;;;;12.11;95.51;99413.55;1723179;81;21497;-68
2022/09/21 11:02:34;;;;;;;3.33;2.87;;;;;;;11.99;96.45;99396.01;1748447;81;21610;-70
2022/09/21 11:05:13;;;;;;;4.37;2.75;;;;;;;11.87;98.30;99396.23;1734555;81;21123;-71
2022/09/21 11:08:12;;;;;;;2.50;2.30;;;;;;;11.76;99.27;99401.31;1720058;83;21616;-70
2022/09/21 11:11:27;;;;;;;2.33;2.12;;;;;;;11.69;100.00;99399.38;1634317;82;21992;-76
2022/09/21 11:14:30;;;;;;;4.08;2.50;;;;;;;11.68;100.00;99394.53;1732756;81;21024;-71
2022/09/21 11:17:14;;;;;;;16.12;11.18;;;;;;;11.67;100.00;99398.29;1755979;81;21090;-69
2022/09/21 11:19:53;;;;;;;11.73;8.48;;;;;;;11.66;100.00;99405.28;1747505;80;21077;-68
2022/09/21 11:22:36;;;;;;;6.37;5.78;;;;;;;11.69;100.00;99397.50;1758991;81;21051;-67
2022/09/21 11:25:23;;;;;;;4.97;4.40;;;;;;;11.72;100.00;99396.15;1741806;81;21132;-66
2022/09/21 11:27:55;;;;;;;4.03;3.65;;;;;;;11.78;100.00;99391.09;1729462;81;21014;-69
2022/09/21 11:30:21;;;;;;;3.67;3.37;;;;;;;11.85;100.00;99389.47;1738462;81;21107;-68
2022/09/21 11:33:18;;;;;;;3.47;3.17;;;;;;;11.88;100.00;99389.77;1709453;82;21056;-68
2022/09/21 11:36:11;;;;;;;3.65;3.35;;;;;;;11.92;100.00;99398.94;1707887;83;21103;-69
2022/09/21 11:39:23;;;;;;;2.80;2.60;;;;;;;11.97;100.00;99388.72;1707276;83;21090;-67
2022/09/21 11:42:24;;;;;;;2.92;2.70;;;;;;;12.07;100.00;99395.48;1758932;80;21067;-71
2022/09/21 11:44:59;;;;;;;3.17;2.87;;;;;;;12.23;100.00;99391.71;1761113;81;21023;-65
2022/09/21 11:48:06;;;;;;;3.37;3.10;;;;;;;12.30;100.00;99394.16;1734798;81;21023;-67
2022/09/21 11:51:22;;;;;;;4.47;2.90;;;;;;;12.37;100.00;99393.37;1734774;80;21559;-69
2022/09/21 11:54:37;;;;;;;3.87;3.58;;;;;;;12.46;100.00;99395.27;1756344;80;21154;-71
2022/09/21 11:57:21;;;;;;;2.90;2.60;;;;;;;12.50;100.00;99407.13;1655976;82;21108;-76
2022/09/21 12:00:10;;;;;;;4.78;2.27;;;;;;;12.48;100.00;99395.78;1744469;81;21067;-74
2022/09/21 12:03:14;;;;;;;2.50;2.30;;;;;;;12.48;100.00;99395.78;1693416;84;21070;-74
2022/09/21 12:06:08;;;;;;;2.55;2.35;;;;;;;12.54;100.00;99396.60;1737319;82;21038;-74
2022/09/21 12:09:19;;;;;;;2.30;2.10;;;;;;;12.59;100.00;99403.34;1734799;82;21131;-73